sensor_id;sensor_type;location;lat;lon;timestamp;P1;durP1;ratioP1;P2;durP2;ratioP2
6135;SDS011;24008;42.664;23.372;2022-12-24T00:00:59;57.53;;;30.37;;
6135;SDS011;24008;42.664;23.372;2022-12-24T00:03:26;56.33;;;31.73;;
6135;SDS011;24008;42.664;23.372;2022-12-24T00:05:53;51.73;;;28.90;;
6135;SDS011;24008;42.664;23.372;2022-12-24T00:08:21;55.67;;;29.40;;
6135;SDS011;24008;42.664;23.372;2022-12-24T00:10:48;47.57;;;26.17;;
6135;SDS011;24008;42.664;23.372;2022-12-24T00:13:16;48.30;;;27.60;;
6135;SDS011;24008;42.664;23.372;2022-12-24T00:15:43;49.67;;;28.47;;
6135;SDS011;24008;42.664;23.372;2022-12-24T00:18:10;49.20;;;27.63;;
6135;SDS011;24008;42.664;23.372;2022-12-24T00:20:36;46.83;;;27.03;;
6135;SDS011;24008;42.664;23.372;2022-12-24T00:23:03;43.97;;;26.60;;
6135;SDS011;24008;42.664;23.372;2022-12-24T00:25:31;39.70;;;24.53;;
6135;SDS011;24008;42.664;23.372;2022-12-24T00:27:58;45.10;;;25.53;;
6135;SDS011;24008;42.664;23.372;2022-12-24T00:30:25;41.87;;;25.03;;
6135;SDS011;24008;42.664;23.372;2022-12-24T00:32:52;45.07;;;25.73;;
6135;SDS011;24008;42.664;23.372;2022-12-24T00:35:19;44.97;;;24.50;;
6135;SDS011;24008;42.664;23.372;2022-12-24T00:37:46;41.83;;;24.53;;
6135;SDS011;24008;42.664;23.372;2022-12-24T00:40:13;47.13;;;27.90;;
6135;SDS011;24008;42.664;23.372;2022-12-24T00:42:41;49.20;;;28.23;;
6135;SDS011;24008;42.664;23.372;2022-12-24T00:45:08;48.27;;;25.63;;
6135;SDS011;24008;42.664;23.372;2022-12-24T00:47:36;50.90;;;28.07;;
6135;SDS011;24008;42.664;23.372;2022-12-24T00:50:03;47.13;;;27.93;;
6135;SDS011;24008;42.664;23.372;2022-12-24T00:52:30;53.87;;;30.33;;
6135;SDS011;24008;42.664;23.372;2022-12-24T00:54:57;54.07;;;31.13;;
6135;SDS011;24008;42.664;23.372;2022-12-24T00:57:24;51.10;;;29.63;;
6135;SDS011;24008;42.664;23.372;2022-12-24T00:59:52;52.30;;;30.03;;
6135;SDS011;24008;42.664;23.372;2022-12-24T01:02:19;45.97;;;27.70;;
6135;SDS011;24008;42.664;23.372;2022-12-24T01:04:45;47.67;;;26.63;;
6135;SDS011;24008;42.664;23.372;2022-12-24T01:07:29;46.90;;;28.20;;
6135;SDS011;24008;42.664;23.372;2022-12-24T01:09:57;52.40;;;28.97;;
6135;SDS011;24008;42.664;23.372;2022-12-24T01:12:24;47.93;;;27.80;;
6135;SDS011;24008;42.664;23.372;2022-12-24T01:14:52;57.30;;;29.50;;
6135;SDS011;24008;42.664;23.372;2022-12-24T01:17:19;53.53;;;31.90;;
6135;SDS011;24008;42.664;23.372;2022-12-24T01:19:46;54.30;;;31.53;;
6135;SDS011;24008;42.664;23.372;2022-12-24T01:22:13;55.20;;;32.20;;
6135;SDS011;24008;42.664;23.372;2022-12-24T01:24:39;62.50;;;35.23;;
6135;SDS011;24008;42.664;23.372;2022-12-24T01:27:07;57.53;;;33.13;;
6135;SDS011;24008;42.664;23.372;2022-12-24T01:29:34;62.07;;;37.07;;
6135;SDS011;24008;42.664;23.372;2022-12-24T01:32:02;55.77;;;33.17;;
6135;SDS011;24008;42.664;23.372;2022-12-24T01:34:29;54.87;;;31.80;;
6135;SDS011;24008;42.664;23.372;2022-12-24T01:36:56;55.63;;;33.07;;
6135;SDS011;24008;42.664;23.372;2022-12-24T01:39:23;57.27;;;34.10;;
6135;SDS011;24008;42.664;23.372;2022-12-24T01:41:52;54.67;;;31.33;;
6135;SDS011;24008;42.664;23.372;2022-12-24T01:44:39;55.87;;;31.87;;
6135;SDS011;24008;42.664;23.372;2022-12-24T01:47:10;55.53;;;31.90;;
6135;SDS011;24008;42.664;23.372;2022-12-24T01:49:41;52.93;;;30.80;;
6135;SDS011;24008;42.664;23.372;2022-12-24T01:52:12;57.03;;;30.13;;
6135;SDS011;24008;42.664;23.372;2022-12-24T01:54:43;56.57;;;32.43;;
6135;SDS011;24008;42.664;23.372;2022-12-24T01:57:14;56.10;;;32.10;;
6135;SDS011;24008;42.664;23.372;2022-12-24T01:59:44;56.43;;;33.23;;
6135;SDS011;24008;42.664;23.372;2022-12-24T02:02:15;51.03;;;30.47;;
6135;SDS011;24008;42.664;23.372;2022-12-24T02:04:43;55.20;;;30.97;;
6135;SDS011;24008;42.664;23.372;2022-12-24T02:07:16;53.50;;;31.33;;
6135;SDS011;24008;42.664;23.372;2022-12-24T02:09:43;56.50;;;32.17;;
6135;SDS011;24008;42.664;23.372;2022-12-24T02:12:12;51.97;;;31.43;;
6135;SDS011;24008;42.664;23.372;2022-12-24T02:14:39;49.50;;;30.10;;
6135;SDS011;24008;42.664;23.372;2022-12-24T02:17:08;57.10;;;31.13;;
6135;SDS011;24008;42.664;23.372;2022-12-24T02:20:07;48.70;;;29.33;;
6135;SDS011;24008;42.664;23.372;2022-12-24T02:23:03;52.40;;;28.47;;
6135;SDS011;24008;42.664;23.372;2022-12-24T02:25:45;56.33;;;29.17;;
6135;SDS011;24008;42.664;23.372;2022-12-24T02:28:27;43.10;;;26.47;;
6135;SDS011;24008;42.664;23.372;2022-12-24T02:31:07;42.73;;;26.17;;
6135;SDS011;24008;42.664;23.372;2022-12-24T02:33:40;48.57;;;27.93;;
6135;SDS011;24008;42.664;23.372;2022-12-24T02:36:15;46.37;;;27.70;;
6135;SDS011;24008;42.664;23.372;2022-12-24T02:38:48;48.57;;;27.33;;
6135;SDS011;24008;42.664;23.372;2022-12-24T02:41:23;43.57;;;25.23;;
6135;SDS011;24008;42.664;23.372;2022-12-24T02:44:13;44.53;;;25.17;;
6135;SDS011;24008;42.664;23.372;2022-12-24T02:46:42;43.90;;;24.30;;
6135;SDS011;24008;42.664;23.372;2022-12-24T02:49:10;45.70;;;24.70;;
6135;SDS011;24008;42.664;23.372;2022-12-24T02:51:39;44.53;;;25.70;;
6135;SDS011;24008;42.664;23.372;2022-12-24T02:54:05;48.17;;;25.70;;
6135;SDS011;24008;42.664;23.372;2022-12-24T02:56:36;43.27;;;26.17;;
6135;SDS011;24008;42.664;23.372;2022-12-24T02:59:32;46.07;;;26.40;;
6135;SDS011;24008;42.664;23.372;2022-12-24T03:02:12;46.23;;;27.67;;
6135;SDS011;24008;42.664;23.372;2022-12-24T03:04:49;43.70;;;25.30;;
6135;SDS011;24008;42.664;23.372;2022-12-24T03:07:23;43.77;;;24.30;;
6135;SDS011;24008;42.664;23.372;2022-12-24T03:09:56;43.80;;;23.73;;
6135;SDS011;24008;42.664;23.372;2022-12-24T03:12:33;47.03;;;25.07;;
6135;SDS011;24008;42.664;23.372;2022-12-24T03:15:04;44.63;;;26.33;;
6135;SDS011;24008;42.664;23.372;2022-12-24T03:17:36;42.13;;;25.33;;
6135;SDS011;24008;42.664;23.372;2022-12-24T03:20:05;44.90;;;26.47;;
6135;SDS011;24008;42.664;23.372;2022-12-24T03:22:36;47.37;;;25.93;;
6135;SDS011;24008;42.664;23.372;2022-12-24T03:25:04;46.30;;;26.07;;
6135;SDS011;24008;42.664;23.372;2022-12-24T03:27:31;55.13;;;27.83;;
6135;SDS011;24008;42.664;23.372;2022-12-24T03:30:00;52.10;;;28.23;;
6135;SDS011;24008;42.664;23.372;2022-12-24T03:32:29;60.50;;;32.77;;
6135;SDS011;24008;42.664;23.372;2022-12-24T03:34:58;75.23;;;39.27;;
6135;SDS011;24008;42.664;23.372;2022-12-24T03:37:25;83.00;;;43.97;;
6135;SDS011;24008;42.664;23.372;2022-12-24T03:39:52;80.40;;;40.77;;
6135;SDS011;24008;42.664;23.372;2022-12-24T03:42:19;83.00;;;43.03;;
6135;SDS011;24008;42.664;23.372;2022-12-24T03:44:46;80.93;;;40.93;;
6135;SDS011;24008;42.664;23.372;2022-12-24T03:47:12;82.20;;;42.70;;
6135;SDS011;24008;42.664;23.372;2022-12-24T03:49:39;67.60;;;36.20;;
6135;SDS011;24008;42.664;23.372;2022-12-24T03:52:07;61.83;;;35.20;;
6135;SDS011;24008;42.664;23.372;2022-12-24T03:54:34;70.27;;;37.43;;
6135;SDS011;24008;42.664;23.372;2022-12-24T03:57:01;62.70;;;35.10;;
6135;SDS011;24008;42.664;23.372;2022-12-24T03:59:28;63.10;;;33.47;;
6135;SDS011;24008;42.664;23.372;2022-12-24T04:01:55;57.40;;;30.57;;
6135;SDS011;24008;42.664;23.372;2022-12-24T04:04:22;55.83;;;28.83;;
6135;SDS011;24008;42.664;23.372;2022-12-24T04:06:49;52.47;;;28.63;;
6135;SDS011;24008;42.664;23.372;2022-12-24T04:09:17;50.67;;;27.60;;
6135;SDS011;24008;42.664;23.372;2022-12-24T04:11:44;49.40;;;27.23;;
6135;SDS011;24008;42.664;23.372;2022-12-24T04:14:11;50.60;;;27.63;;
6135;SDS011;24008;42.664;23.372;2022-12-24T04:16:38;48.87;;;27.00;;
6135;SDS011;24008;42.664;23.372;2022-12-24T04:19:04;47.27;;;26.80;;
6135;SDS011;24008;42.664;23.372;2022-12-24T04:21:31;45.87;;;26.67;;
6135;SDS011;24008;42.664;23.372;2022-12-24T04:23:58;44.70;;;25.77;;
6135;SDS011;24008;42.664;23.372;2022-12-24T04:26:26;45.87;;;26.00;;
6135;SDS011;24008;42.664;23.372;2022-12-24T04:29:02;46.47;;;26.50;;
6135;SDS011;24008;42.664;23.372;2022-12-24T04:31:29;51.93;;;30.50;;
6135;SDS011;24008;42.664;23.372;2022-12-24T04:33:56;59.20;;;30.17;;
6135;SDS011;24008;42.664;23.372;2022-12-24T04:36:22;43.90;;;25.50;;
6135;SDS011;24008;42.664;23.372;2022-12-24T04:38:49;46.63;;;25.67;;
6135;SDS011;24008;42.664;23.372;2022-12-24T04:41:16;45.50;;;26.33;;
6135;SDS011;24008;42.664;23.372;2022-12-24T04:43:46;47.50;;;27.40;;
6135;SDS011;24008;42.664;23.372;2022-12-24T04:46:14;44.80;;;26.37;;
6135;SDS011;24008;42.664;23.372;2022-12-24T04:48:43;44.07;;;25.97;;
6135;SDS011;24008;42.664;23.372;2022-12-24T04:51:10;48.37;;;26.37;;
6135;SDS011;24008;42.664;23.372;2022-12-24T04:53:40;44.47;;;26.73;;
6135;SDS011;24008;42.664;23.372;2022-12-24T04:56:08;40.27;;;23.73;;
6135;SDS011;24008;42.664;23.372;2022-12-24T04:58:37;48.27;;;26.37;;
6135;SDS011;24008;42.664;23.372;2022-12-24T05:01:05;48.57;;;24.77;;
6135;SDS011;24008;42.664;23.372;2022-12-24T05:03:33;43.90;;;24.37;;
6135;SDS011;24008;42.664;23.372;2022-12-24T05:06:00;38.67;;;23.27;;
6135;SDS011;24008;42.664;23.372;2022-12-24T05:08:27;47.50;;;25.50;;
6135;SDS011;24008;42.664;23.372;2022-12-24T05:10:55;48.40;;;26.63;;
6135;SDS011;24008;42.664;23.372;2022-12-24T05:13:22;40.57;;;23.97;;
6135;SDS011;24008;42.664;23.372;2022-12-24T05:15:49;52.67;;;30.97;;
6135;SDS011;24008;42.664;23.372;2022-12-24T05:18:17;44.80;;;27.23;;
6135;SDS011;24008;42.664;23.372;2022-12-24T05:21:06;47.40;;;28.50;;
6135;SDS011;24008;42.664;23.372;2022-12-24T05:23:34;45.17;;;27.30;;
6135;SDS011;24008;42.664;23.372;2022-12-24T05:26:22;44.60;;;24.90;;
6135;SDS011;24008;42.664;23.372;2022-12-24T05:28:54;41.93;;;25.27;;
6135;SDS011;24008;42.664;23.372;2022-12-24T05:31:22;40.77;;;24.30;;
6135;SDS011;24008;42.664;23.372;2022-12-24T05:33:52;47.33;;;27.07;;
6135;SDS011;24008;42.664;23.372;2022-12-24T05:36:20;45.77;;;25.80;;
6135;SDS011;24008;42.664;23.372;2022-12-24T05:38:47;42.20;;;24.73;;
6135;SDS011;24008;42.664;23.372;2022-12-24T05:41:14;42.43;;;25.57;;
6135;SDS011;24008;42.664;23.372;2022-12-24T05:43:41;48.17;;;29.30;;
6135;SDS011;24008;42.664;23.372;2022-12-24T05:46:09;52.17;;;30.13;;
6135;SDS011;24008;42.664;23.372;2022-12-24T05:48:38;111.70;;;56.13;;
6135;SDS011;24008;42.664;23.372;2022-12-24T05:51:06;68.93;;;38.10;;
6135;SDS011;24008;42.664;23.372;2022-12-24T05:53:35;110.50;;;48.73;;
6135;SDS011;24008;42.664;23.372;2022-12-24T05:56:06;88.60;;;46.00;;
6135;SDS011;24008;42.664;23.372;2022-12-24T05:58:35;105.47;;;55.67;;
6135;SDS011;24008;42.664;23.372;2022-12-24T06:01:03;178.90;;;91.73;;
6135;SDS011;24008;42.664;23.372;2022-12-24T06:03:30;192.87;;;95.50;;
6135;SDS011;24008;42.664;23.372;2022-12-24T06:05:59;212.27;;;105.23;;
6135;SDS011;24008;42.664;23.372;2022-12-24T06:08:28;218.77;;;108.50;;
6135;SDS011;24008;42.664;23.372;2022-12-24T06:10:56;206.13;;;103.77;;
6135;SDS011;24008;42.664;23.372;2022-12-24T06:13:24;207.20;;;102.23;;
6135;SDS011;24008;42.664;23.372;2022-12-24T06:15:53;184.53;;;93.73;;
6135;SDS011;24008;42.664;23.372;2022-12-24T06:18:20;196.57;;;98.77;;
6135;SDS011;24008;42.664;23.372;2022-12-24T06:20:48;221.53;;;106.50;;
6135;SDS011;24008;42.664;23.372;2022-12-24T06:23:16;211.67;;;103.70;;
6135;SDS011;24008;42.664;23.372;2022-12-24T06:25:44;220.47;;;108.07;;
6135;SDS011;24008;42.664;23.372;2022-12-24T06:28:11;228.93;;;115.77;;
6135;SDS011;24008;42.664;23.372;2022-12-24T06:30:38;240.50;;;116.23;;
6135;SDS011;24008;42.664;23.372;2022-12-24T06:33:05;236.47;;;109.27;;
6135;SDS011;24008;42.664;23.372;2022-12-24T06:35:32;225.10;;;108.67;;
6135;SDS011;24008;42.664;23.372;2022-12-24T06:37:59;232.90;;;108.43;;
6135;SDS011;24008;42.664;23.372;2022-12-24T06:40:26;211.33;;;103.80;;
6135;SDS011;24008;42.664;23.372;2022-12-24T06:42:54;202.33;;;99.00;;
6135;SDS011;24008;42.664;23.372;2022-12-24T06:45:21;199.07;;;97.73;;
6135;SDS011;24008;42.664;23.372;2022-12-24T06:47:48;193.33;;;94.37;;
6135;SDS011;24008;42.664;23.372;2022-12-24T06:50:15;201.53;;;95.70;;
6135;SDS011;24008;42.664;23.372;2022-12-24T06:52:42;182.90;;;91.50;;
6135;SDS011;24008;42.664;23.372;2022-12-24T06:55:09;191.43;;;94.17;;
6135;SDS011;24008;42.664;23.372;2022-12-24T06:57:36;190.27;;;92.10;;
6135;SDS011;24008;42.664;23.372;2022-12-24T07:00:06;199.23;;;97.10;;
6135;SDS011;24008;42.664;23.372;2022-12-24T07:02:34;198.83;;;94.27;;
6135;SDS011;24008;42.664;23.372;2022-12-24T07:05:00;159.30;;;81.83;;
6135;SDS011;24008;42.664;23.372;2022-12-24T07:07:46;158.03;;;74.00;;
6135;SDS011;24008;42.664;23.372;2022-12-24T07:10:13;155.63;;;77.13;;
6135;SDS011;24008;42.664;23.372;2022-12-24T07:12:41;109.23;;;55.43;;
6135;SDS011;24008;42.664;23.372;2022-12-24T07:15:10;110.30;;;55.27;;
6135;SDS011;24008;42.664;23.372;2022-12-24T07:17:38;90.03;;;48.23;;
6135;SDS011;24008;42.664;23.372;2022-12-24T07:20:05;90.73;;;45.60;;
6135;SDS011;24008;42.664;23.372;2022-12-24T07:22:33;79.93;;;44.03;;
6135;SDS011;24008;42.664;23.372;2022-12-24T07:25:00;86.60;;;46.00;;
6135;SDS011;24008;42.664;23.372;2022-12-24T07:27:27;67.97;;;39.97;;
6135;SDS011;24008;42.664;23.372;2022-12-24T07:29:54;75.73;;;41.43;;
6135;SDS011;24008;42.664;23.372;2022-12-24T07:32:22;101.57;;;53.57;;
6135;SDS011;24008;42.664;23.372;2022-12-24T07:34:48;127.13;;;63.60;;
6135;SDS011;24008;42.664;23.372;2022-12-24T07:37:15;124.93;;;68.27;;
6135;SDS011;24008;42.664;23.372;2022-12-24T07:39:42;129.80;;;69.23;;
6135;SDS011;24008;42.664;23.372;2022-12-24T07:42:09;113.30;;;58.60;;
6135;SDS011;24008;42.664;23.372;2022-12-24T07:44:36;123.80;;;64.30;;
6135;SDS011;24008;42.664;23.372;2022-12-24T07:47:03;120.20;;;62.70;;
6135;SDS011;24008;42.664;23.372;2022-12-24T07:49:31;114.77;;;61.10;;
6135;SDS011;24008;42.664;23.372;2022-12-24T07:51:58;110.97;;;58.93;;
6135;SDS011;24008;42.664;23.372;2022-12-24T07:54:25;89.80;;;47.57;;
6135;SDS011;24008;42.664;23.372;2022-12-24T07:56:52;68.40;;;39.33;;
6135;SDS011;24008;42.664;23.372;2022-12-24T07:59:19;87.57;;;46.27;;
6135;SDS011;24008;42.664;23.372;2022-12-24T08:01:46;102.17;;;51.97;;
6135;SDS011;24008;42.664;23.372;2022-12-24T08:04:13;98.37;;;52.90;;
6135;SDS011;24008;42.664;23.372;2022-12-24T08:06:41;93.80;;;51.50;;
6135;SDS011;24008;42.664;23.372;2022-12-24T08:09:08;86.10;;;49.07;;
6135;SDS011;24008;42.664;23.372;2022-12-24T08:11:35;87.03;;;43.57;;
6135;SDS011;24008;42.664;23.372;2022-12-24T08:14:02;88.07;;;45.87;;
6135;SDS011;24008;42.664;23.372;2022-12-24T08:16:28;81.13;;;46.50;;
6135;SDS011;24008;42.664;23.372;2022-12-24T08:18:55;80.00;;;44.83;;
6135;SDS011;24008;42.664;23.372;2022-12-24T08:21:22;75.97;;;42.40;;
6135;SDS011;24008;42.664;23.372;2022-12-24T08:23:50;78.87;;;43.57;;
6135;SDS011;24008;42.664;23.372;2022-12-24T08:26:17;83.87;;;43.17;;
6135;SDS011;24008;42.664;23.372;2022-12-24T08:28:44;72.63;;;41.20;;
6135;SDS011;24008;42.664;23.372;2022-12-24T08:31:11;77.77;;;43.70;;
6135;SDS011;24008;42.664;23.372;2022-12-24T08:33:39;73.60;;;42.07;;
6135;SDS011;24008;42.664;23.372;2022-12-24T08:36:07;72.10;;;40.97;;
6135;SDS011;24008;42.664;23.372;2022-12-24T08:38:34;60.27;;;37.97;;
6135;SDS011;24008;42.664;23.372;2022-12-24T08:41:02;67.33;;;37.77;;
6135;SDS011;24008;42.664;23.372;2022-12-24T08:43:29;70.13;;;38.43;;
6135;SDS011;24008;42.664;23.372;2022-12-24T08:46:00;62.53;;;37.47;;
6135;SDS011;24008;42.664;23.372;2022-12-24T08:48:27;62.63;;;36.00;;
6135;SDS011;24008;42.664;23.372;2022-12-24T08:50:54;63.37;;;37.00;;
6135;SDS011;24008;42.664;23.372;2022-12-24T08:53:20;62.07;;;35.73;;
6135;SDS011;24008;42.664;23.372;2022-12-24T08:55:47;56.57;;;36.03;;
6135;SDS011;24008;42.664;23.372;2022-12-24T08:58:17;61.83;;;34.67;;
6135;SDS011;24008;42.664;23.372;2022-12-24T09:00:44;60.70;;;34.90;;
6135;SDS011;24008;42.664;23.372;2022-12-24T09:03:12;57.53;;;34.73;;
6135;SDS011;24008;42.664;23.372;2022-12-24T09:05:40;58.00;;;32.93;;
6135;SDS011;24008;42.664;23.372;2022-12-24T09:08:07;66.57;;;34.90;;
6135;SDS011;24008;42.664;23.372;2022-12-24T09:10:34;61.17;;;34.90;;
6135;SDS011;24008;42.664;23.372;2022-12-24T09:13:00;65.80;;;37.20;;
6135;SDS011;24008;42.664;23.372;2022-12-24T09:15:28;62.97;;;36.87;;
6135;SDS011;24008;42.664;23.372;2022-12-24T09:17:55;65.87;;;37.73;;
6135;SDS011;24008;42.664;23.372;2022-12-24T09:20:22;71.67;;;37.53;;
6135;SDS011;24008;42.664;23.372;2022-12-24T09:22:49;57.33;;;35.63;;
6135;SDS011;24008;42.664;23.372;2022-12-24T09:25:16;61.40;;;35.43;;
6135;SDS011;24008;42.664;23.372;2022-12-24T09:27:43;63.70;;;36.53;;
6135;SDS011;24008;42.664;23.372;2022-12-24T09:30:10;68.87;;;37.03;;
6135;SDS011;24008;42.664;23.372;2022-12-24T09:32:39;68.67;;;37.60;;
6135;SDS011;24008;42.664;23.372;2022-12-24T09:35:06;67.27;;;38.37;;
6135;SDS011;24008;42.664;23.372;2022-12-24T09:37:34;70.27;;;38.90;;
6135;SDS011;24008;42.664;23.372;2022-12-24T09:40:01;79.37;;;42.37;;
6135;SDS011;24008;42.664;23.372;2022-12-24T09:42:30;92.30;;;47.47;;
6135;SDS011;24008;42.664;23.372;2022-12-24T09:45:11;90.07;;;49.40;;
6135;SDS011;24008;42.664;23.372;2022-12-24T09:47:42;134.07;;;68.93;;
6135;SDS011;24008;42.664;23.372;2022-12-24T09:50:20;146.93;;;75.00;;
6135;SDS011;24008;42.664;23.372;2022-12-24T09:53:09;142.83;;;74.83;;
6135;SDS011;24008;42.664;23.372;2022-12-24T09:55:44;146.67;;;76.17;;
6135;SDS011;24008;42.664;23.372;2022-12-24T09:58:15;147.00;;;73.47;;
6135;SDS011;24008;42.664;23.372;2022-12-24T10:00:46;141.87;;;68.50;;
6135;SDS011;24008;42.664;23.372;2022-12-24T10:03:15;128.57;;;66.07;;
6135;SDS011;24008;42.664;23.372;2022-12-24T10:05:43;115.07;;;58.37;;
6135;SDS011;24008;42.664;23.372;2022-12-24T10:08:16;108.67;;;54.50;;
6135;SDS011;24008;42.664;23.372;2022-12-24T10:10:49;97.40;;;49.63;;
6135;SDS011;24008;42.664;23.372;2022-12-24T10:13:21;94.27;;;49.73;;
6135;SDS011;24008;42.664;23.372;2022-12-24T10:15:59;97.77;;;49.10;;
6135;SDS011;24008;42.664;23.372;2022-12-24T10:18:34;91.40;;;48.17;;
6135;SDS011;24008;42.664;23.372;2022-12-24T10:21:09;78.87;;;44.13;;
6135;SDS011;24008;42.664;23.372;2022-12-24T10:23:40;89.27;;;46.57;;
6135;SDS011;24008;42.664;23.372;2022-12-24T10:26:13;90.40;;;46.07;;
6135;SDS011;24008;42.664;23.372;2022-12-24T10:28:45;86.57;;;45.50;;
6135;SDS011;24008;42.664;23.372;2022-12-24T10:31:14;88.47;;;45.63;;
6135;SDS011;24008;42.664;23.372;2022-12-24T10:33:42;80.13;;;44.13;;
6135;SDS011;24008;42.664;23.372;2022-12-24T10:36:12;84.83;;;44.97;;
6135;SDS011;24008;42.664;23.372;2022-12-24T10:38:42;83.90;;;44.13;;
6135;SDS011;24008;42.664;23.372;2022-12-24T10:41:09;84.10;;;45.67;;
6135;SDS011;24008;42.664;23.372;2022-12-24T10:43:37;85.17;;;44.57;;
6135;SDS011;24008;42.664;23.372;2022-12-24T10:46:11;80.33;;;43.57;;
6135;SDS011;24008;42.664;23.372;2022-12-24T10:48:46;86.07;;;44.97;;
6135;SDS011;24008;42.664;23.372;2022-12-24T10:51:19;84.77;;;42.90;;
6135;SDS011;24008;42.664;23.372;2022-12-24T10:53:50;79.13;;;42.50;;
6135;SDS011;24008;42.664;23.372;2022-12-24T10:56:24;77.30;;;43.33;;
6135;SDS011;24008;42.664;23.372;2022-12-24T10:58:51;81.97;;;42.37;;
6135;SDS011;24008;42.664;23.372;2022-12-24T11:01:21;76.30;;;42.37;;
6135;SDS011;24008;42.664;23.372;2022-12-24T11:04:15;78.70;;;40.63;;
6135;SDS011;24008;42.664;23.372;2022-12-24T11:06:50;78.90;;;39.23;;
6135;SDS011;24008;42.664;23.372;2022-12-24T11:09:20;67.07;;;38.17;;
6135;SDS011;24008;42.664;23.372;2022-12-24T11:11:48;71.10;;;39.60;;
6135;SDS011;24008;42.664;23.372;2022-12-24T11:14:15;70.20;;;39.33;;
6135;SDS011;24008;42.664;23.372;2022-12-24T11:16:48;76.83;;;40.47;;
6135;SDS011;24008;42.664;23.372;2022-12-24T11:19:22;71.57;;;38.83;;
6135;SDS011;24008;42.664;23.372;2022-12-24T11:21:59;67.33;;;38.50;;
6135;SDS011;24008;42.664;23.372;2022-12-24T11:24:29;79.10;;;40.23;;
6135;SDS011;24008;42.664;23.372;2022-12-24T11:29:49;64.87;;;39.10;;
6135;SDS011;24008;42.664;23.372;2022-12-24T11:32:17;65.77;;;37.00;;
6135;SDS011;24008;42.664;23.372;2022-12-24T11:34:46;69.03;;;39.57;;
6135;SDS011;24008;42.664;23.372;2022-12-24T11:37:15;69.63;;;39.47;;
6135;SDS011;24008;42.664;23.372;2022-12-24T11:39:46;70.40;;;39.90;;
6135;SDS011;24008;42.664;23.372;2022-12-24T11:42:22;66.63;;;38.70;;
6135;SDS011;24008;42.664;23.372;2022-12-24T11:44:53;72.57;;;39.57;;
6135;SDS011;24008;42.664;23.372;2022-12-24T11:47:30;74.07;;;39.73;;
6135;SDS011;24008;42.664;23.372;2022-12-24T11:52:51;60.40;;;36.57;;
6135;SDS011;24008;42.664;23.372;2022-12-24T11:55:27;62.90;;;36.67;;
6135;SDS011;24008;42.664;23.372;2022-12-24T11:58:04;64.60;;;37.20;;
6135;SDS011;24008;42.664;23.372;2022-12-24T12:00:38;63.03;;;36.17;;
6135;SDS011;24008;42.664;23.372;2022-12-24T12:03:09;61.50;;;35.57;;
6135;SDS011;24008;42.664;23.372;2022-12-24T12:05:51;54.10;;;34.13;;
6135;SDS011;24008;42.664;23.372;2022-12-24T12:08:20;58.93;;;35.57;;
6135;SDS011;24008;42.664;23.372;2022-12-24T12:10:48;59.00;;;35.63;;
6135;SDS011;24008;42.664;23.372;2022-12-24T12:13:18;57.63;;;35.30;;
6135;SDS011;24008;42.664;23.372;2022-12-24T12:15:54;55.33;;;33.57;;
6135;SDS011;24008;42.664;23.372;2022-12-24T12:18:32;59.50;;;35.30;;
6135;SDS011;24008;42.664;23.372;2022-12-24T12:21:04;57.50;;;35.13;;
6135;SDS011;24008;42.664;23.372;2022-12-24T12:23:35;59.03;;;36.13;;
6135;SDS011;24008;42.664;23.372;2022-12-24T12:26:06;60.83;;;36.33;;
6135;SDS011;24008;42.664;23.372;2022-12-24T12:28:39;69.07;;;37.80;;
6135;SDS011;24008;42.664;23.372;2022-12-24T12:31:10;65.20;;;38.17;;
6135;SDS011;24008;42.664;23.372;2022-12-24T12:33:45;72.53;;;40.60;;
6135;SDS011;24008;42.664;23.372;2022-12-24T12:36:17;68.07;;;40.20;;
6135;SDS011;24008;42.664;23.372;2022-12-24T12:38:49;67.83;;;40.47;;
6135;SDS011;24008;42.664;23.372;2022-12-24T12:41:23;70.90;;;39.63;;
6135;SDS011;24008;42.664;23.372;2022-12-24T12:44:14;62.17;;;36.23;;
6135;SDS011;24008;42.664;23.372;2022-12-24T12:46:55;57.03;;;35.17;;
6135;SDS011;24008;42.664;23.372;2022-12-24T12:49:35;60.57;;;36.30;;
6135;SDS011;24008;42.664;23.372;2022-12-24T12:52:13;69.77;;;37.67;;
6135;SDS011;24008;42.664;23.372;2022-12-24T12:54:51;61.07;;;37.00;;
6135;SDS011;24008;42.664;23.372;2022-12-24T12:57:27;63.03;;;36.17;;
6135;SDS011;24008;42.664;23.372;2022-12-24T13:00:03;63.67;;;36.60;;
6135;SDS011;24008;42.664;23.372;2022-12-24T13:02:38;59.63;;;35.47;;
6135;SDS011;24008;42.664;23.372;2022-12-24T13:08:30;61.53;;;35.90;;
6135;SDS011;24008;42.664;23.372;2022-12-24T13:11:25;58.17;;;35.23;;
6135;SDS011;24008;42.664;23.372;2022-12-24T13:14:20;63.63;;;36.97;;
6135;SDS011;24008;42.664;23.372;2022-12-24T13:17:13;64.40;;;36.70;;
6135;SDS011;24008;42.664;23.372;2022-12-24T13:22:55;63.57;;;38.20;;
6135;SDS011;24008;42.664;23.372;2022-12-24T13:25:31;62.37;;;37.47;;
6135;SDS011;24008;42.664;23.372;2022-12-24T13:28:16;67.20;;;37.03;;
6135;SDS011;24008;42.664;23.372;2022-12-24T13:31:22;66.77;;;38.00;;
6135;SDS011;24008;42.664;23.372;2022-12-24T13:33:56;67.27;;;38.47;;
6135;SDS011;24008;42.664;23.372;2022-12-24T13:39:28;65.00;;;38.73;;
6135;SDS011;24008;42.664;23.372;2022-12-24T13:42:26;69.07;;;39.07;;
6135;SDS011;24008;42.664;23.372;2022-12-24T13:45:40;67.73;;;39.23;;
6135;SDS011;24008;42.664;23.372;2022-12-24T13:48:15;65.80;;;39.73;;
6135;SDS011;24008;42.664;23.372;2022-12-24T13:50:51;78.80;;;43.47;;
6135;SDS011;24008;42.664;23.372;2022-12-24T13:53:20;70.80;;;41.90;;
6135;SDS011;24008;42.664;23.372;2022-12-24T13:55:49;77.03;;;44.57;;
6135;SDS011;24008;42.664;23.372;2022-12-24T13:58:20;80.23;;;45.90;;
6135;SDS011;24008;42.664;23.372;2022-12-24T14:00:53;84.80;;;46.00;;
6135;SDS011;24008;42.664;23.372;2022-12-24T14:03:23;75.47;;;43.27;;
6135;SDS011;24008;42.664;23.372;2022-12-24T14:05:55;81.13;;;44.77;;
6135;SDS011;24008;42.664;23.372;2022-12-24T14:08:26;80.03;;;45.27;;
6135;SDS011;24008;42.664;23.372;2022-12-24T14:11:07;88.17;;;47.00;;
6135;SDS011;24008;42.664;23.372;2022-12-24T14:16:48;86.20;;;48.10;;
6135;SDS011;24008;42.664;23.372;2022-12-24T14:19:18;85.43;;;48.63;;
6135;SDS011;24008;42.664;23.372;2022-12-24T14:21:50;83.93;;;48.03;;
6135;SDS011;24008;42.664;23.372;2022-12-24T14:24:20;91.97;;;50.30;;
6135;SDS011;24008;42.664;23.372;2022-12-24T14:26:51;92.43;;;52.17;;
6135;SDS011;24008;42.664;23.372;2022-12-24T14:29:23;96.30;;;51.70;;
6135;SDS011;24008;42.664;23.372;2022-12-24T14:31:54;93.20;;;52.47;;
6135;SDS011;24008;42.664;23.372;2022-12-24T14:34:22;95.13;;;52.20;;
6135;SDS011;24008;42.664;23.372;2022-12-24T14:36:50;93.27;;;49.93;;
6135;SDS011;24008;42.664;23.372;2022-12-24T14:39:21;97.70;;;53.53;;
6135;SDS011;24008;42.664;23.372;2022-12-24T14:41:53;99.77;;;52.73;;
6135;SDS011;24008;42.664;23.372;2022-12-24T14:44:29;94.47;;;53.23;;
6135;SDS011;24008;42.664;23.372;2022-12-24T14:47:08;93.57;;;52.57;;
6135;SDS011;24008;42.664;23.372;2022-12-24T14:49:59;98.83;;;54.50;;
6135;SDS011;24008;42.664;23.372;2022-12-24T14:52:42;104.27;;;55.93;;
6135;SDS011;24008;42.664;23.372;2022-12-24T14:55:26;103.67;;;55.83;;
6135;SDS011;24008;42.664;23.372;2022-12-24T15:00:47;96.87;;;51.70;;